Airfield :
LOGIN :

Register | Disclaimer

   EN    FR    IT 

 










Legend :    VFR   Marginal VFR   IFR   Intensive IFR   Very Intensive IFR
Visi :
Ceiling :
>= 8 km
>= 3000ft
5 to 8 km
1000 to 3000 ft
1500m to 5 km
500 to 1000 ft
800 to 1500m
200 to 500 ft
< 800m
< 200 ft
Symbols :   Thunderstorms  Fog  Heavy snow  Heavy precipitations  Wind > 20 kt
SIGMETs :     Misc.  Thunderstorms  Icing  Turbulence  Mountain Waves  Volcanic Ashes







- Airport Elevation : 456 ft
- IATA code : QPZ


LIMS - San Damiano Air Base Piacenza

CURRENT METAR :
  • 270755Z 33004KT 8000 -RA BKN025 SCT070 21/21 Q1010

EXPIRED METARs :
  • 270655Z 33003KT 9999 -RA BKN025 SCT070 22/21 Q1010
  • 270555Z 27003KT 9999 SCT025 SCT070 21/21 Q1010 RMK BKN VIS MIN 9999 WIND THR30 27002KT BLU

TAF TAF LIMS
Valid from the 27 at 09:00 until the 27 at 18:00 UTC


270815Z 2709/2718 31005KT 8000 BKN030 SCT070
TEMPO 2709/2712 7000 SHRA FEW025CB BKN040
No reported NOTAMs for that airfield.
1 SIGMET reported for the Milano FIR (LIMM) :
 
Embedded thunderstorms
LIMM SIGMET 2 VALID 270800/271000 LIMM- LIMM MILANO FIR EMBD TS OBS WI N4610 E00840 - N4539 E00834 - N4522 E00938 - N4503 E01056 - N4430 E01125 - N4446 E01234 - N4541 E01150 - N4607 E01027 - N4626 E00955 - N4631 E00920 - N4610 E00840 TOP FL370 STNR NC=



MET'MAP, your aeronautical weather chart ! - Copyright ORBIFLY December 2007 - Disclaimer

ORBIFLY MET'MAP TEAM :

Programming & Development : Alexandra Zaïnal
Concept & Development : Baudouin d'Aumeries
Co-Development & Prog : Marc-Olivier Méhu
Technical & hardware support : Manuel Goepfert

Contact : metmap@orbifly.com




SOURCES & CREDITS :

   NOAA